createdAt,value
2023-04-03T00:04:28.726Z,99426.44
2023-04-03T00:09:52.591Z,99427.13
2023-04-03T00:15:21.834Z,99429.41
2023-04-03T00:20:47.596Z,99431.38
2023-04-03T00:26:12.638Z,99443.28
2023-04-03T00:31:39.619Z,99435.09
2023-04-03T00:37:04.684Z,99433.31
2023-04-03T00:42:29.811Z,99436.50
2023-04-03T00:47:57.690Z,99435.38
2023-04-03T00:53:25.631Z,99433.41
2023-04-03T00:58:55.671Z,99449.50
2023-04-03T01:04:47.699Z,99440.91
2023-04-03T01:10:15.644Z,99448.09
2023-04-03T01:15:43.869Z,99453.16
2023-04-03T01:21:47.625Z,99449.25
2023-04-03T01:27:13.630Z,99460.69
2023-04-03T01:32:41.804Z,99462.69
2023-04-03T01:38:05.658Z,99458.63
2023-04-03T01:43:30.642Z,99463.28
2023-04-03T01:48:59.654Z,99472.50
2023-04-03T01:54:24.645Z,99471.69
2023-04-03T01:59:50.626Z,99473.06
2023-04-03T02:05:19.650Z,99479.66
2023-04-03T02:10:43.737Z,99478.06
2023-04-03T02:16:08.714Z,99482.66
2023-04-03T02:21:35.633Z,99487.59
2023-04-03T02:27:01.657Z,99484.44
2023-04-03T02:32:25.657Z,99483.06
2023-04-03T02:37:53.726Z,99491.34
2023-04-03T02:43:18.678Z,99491.03
2023-04-03T02:48:43.713Z,99502.09
2023-04-03T02:54:10.669Z,99502.25
2023-04-03T02:59:39.695Z,99501.84
2023-04-03T03:05:05.977Z,99519.09
2023-04-03T03:10:33.702Z,99509.50
2023-04-03T03:15:59.712Z,99509.56
2023-04-03T03:21:24.698Z,99519.72
2023-04-03T03:26:53.692Z,99507.56
2023-04-03T03:32:19.687Z,99509.53
2023-04-03T03:37:45.722Z,99510.72
2023-04-03T03:43:13.667Z,99517.78
2023-04-03T03:48:39.679Z,99526.09
2023-04-03T03:54:06.840Z,99538.59
2023-04-03T03:59:34.686Z,99537.13
2023-04-03T04:04:59.672Z,99539.25
2023-04-03T04:10:26.814Z,99537.78
2023-04-03T04:15:54.714Z,99543.31
2023-04-03T04:21:19.972Z,99556.78
2023-04-03T04:26:45.691Z,99555.25
2023-04-03T04:32:16.695Z,99562.16
2023-04-03T04:37:42.745Z,99570.31
2023-04-03T04:43:08.904Z,99570.28
2023-04-03T04:48:37.925Z,99580.31
2023-04-03T04:54:02.685Z,99580.97
2023-04-03T04:59:28.711Z,99589.81
2023-04-03T05:04:57.753Z,99593.16
2023-04-03T05:10:22.689Z,99599.28
2023-04-03T05:15:51.014Z,99598.38
2023-04-03T05:21:18.744Z,99595.84
2023-04-03T05:26:43.742Z,99598.72
2023-04-03T05:32:08.742Z,99605.91
2023-04-03T05:37:35.721Z,99612.94
2023-04-03T05:43:02.711Z,99620.22
2023-04-03T05:48:30.741Z,99621.00
2023-04-03T05:54:01.784Z,99623.81
2023-04-03T05:59:27.735Z,99633.28
2023-04-03T06:04:55.863Z,99628.78
2023-04-03T06:10:23.755Z,99633.28
2023-04-03T06:15:48.745Z,99644.47
2023-04-03T06:21:15.728Z,99649.69
2023-04-03T06:26:43.953Z,99645.00
2023-04-03T06:32:09.761Z,99635.06
2023-04-03T06:37:36.723Z,99645.91
2023-04-03T06:43:04.761Z,99646.81
2023-04-03T06:48:31.903Z,99650.25
2023-04-03T06:53:55.732Z,99655.41
2023-04-03T06:59:23.904Z,99662.78
2023-04-03T07:04:48.813Z,99666.13
2023-04-03T07:10:14.768Z,99671.69
2023-04-03T07:15:44.805Z,99680.69
2023-04-03T07:21:09.778Z,99677.47
2023-04-03T07:26:34.766Z,99695.59
2023-04-03T07:32:02.856Z,99695.22
2023-04-03T07:37:28.791Z,99701.03
2023-04-03T07:42:55.262Z,99690.84
2023-04-03T07:48:23.863Z,99687.81
2023-04-03T07:53:48.808Z,99707.94
2023-04-03T07:59:12.774Z,99697.94
2023-04-03T08:04:41.036Z,99704.72
2023-04-03T08:10:04.794Z,99703.31
2023-04-03T08:15:29.787Z,99707.88
2023-04-03T08:20:57.807Z,99701.63
2023-04-03T08:26:30.804Z,99693.16
2023-04-03T08:31:57.833Z,99706.81
2023-04-03T08:37:26.787Z,99692.53
2023-04-03T08:43:01.779Z,99701.84
2023-04-03T08:48:32.790Z,99703.78
2023-04-03T08:54:06.830Z,99699.41
2023-04-03T08:59:40.826Z,99696.72
2023-04-03T09:05:05.824Z,99705.53
2023-04-03T09:10:41.861Z,99721.59
2023-04-03T09:16:14.834Z,99721.94
2023-04-03T09:21:44.778Z,99720.44
2023-04-03T09:27:15.847Z,99718.13
2023-04-03T09:32:43.052Z,99715.09
2023-04-03T09:38:08.789Z,99716.66
2023-04-03T09:43:40.804Z,99715.56
2023-04-03T09:49:09.994Z,99706.47
2023-04-03T09:54:41.917Z,99700.94
2023-04-03T10:00:21.823Z,99693.91
2023-04-03T10:05:48.814Z,99696.78
2023-04-03T10:11:32.819Z,99691.31
2023-04-03T10:17:04.883Z,99685.88
2023-04-03T10:22:45.819Z,99680.88
2023-04-03T10:28:15.871Z,99668.97
2023-04-03T10:33:56.973Z,99681.56
2023-04-03T10:39:35.901Z,99677.50
2023-04-03T10:45:11.858Z,99676.03
2023-04-03T10:50:47.843Z,99669.56
2023-04-03T10:56:20.949Z,99665.38
2023-04-03T11:01:50.862Z,99646.53
2023-04-03T11:07:24.842Z,99655.34
2023-04-03T11:12:54.824Z,99649.59
2023-04-03T11:18:25.840Z,99648.38
2023-04-03T11:23:55.854Z,99642.38
2023-04-03T11:29:35.048Z,99648.31
2023-04-03T11:35:05.874Z,99645.13
2023-04-03T11:40:41.846Z,99636.69
2023-04-03T11:46:09.886Z,99638.75
2023-04-03T11:51:56.864Z,99634.66
2023-04-03T11:57:51.891Z,99622.00
2023-04-03T12:03:19.049Z,99628.97
2023-04-03T12:08:55.888Z,99621.84
2023-04-03T12:14:21.864Z,99605.97
2023-04-03T12:19:52.852Z,99612.84
2023-04-03T12:26:04.850Z,99607.38
2023-04-03T12:31:30.930Z,99611.56
2023-04-03T12:37:10.270Z,99605.19
2023-04-03T12:42:49.884Z,99591.75
2023-04-03T12:48:13.888Z,99593.00
2023-04-03T12:53:43.920Z,99593.88
2023-04-03T12:59:09.854Z,99580.72
2023-04-03T13:04:37.935Z,99589.97
2023-04-03T13:10:11.904Z,99587.56
2023-04-03T13:15:40.899Z,99586.44
2023-04-03T13:21:06.912Z,99581.19
2023-04-03T13:26:42.914Z,99572.78
2023-04-03T13:32:09.975Z,99570.69
2023-04-03T13:37:40.907Z,99575.47
2023-04-03T13:43:14.887Z,99574.41
2023-04-03T13:48:38.896Z,99582.81
2023-04-03T13:54:05.921Z,99568.16
2023-04-03T13:59:43.897Z,99564.09
2023-04-03T14:05:10.898Z,99575.91
2023-04-03T14:10:37.933Z,99567.09
2023-04-03T14:16:15.671Z,99561.44
2023-04-03T14:21:40.934Z,99558.66
2023-04-03T14:27:16.260Z,99567.47
2023-04-03T14:32:43.966Z,99562.47
2023-04-03T14:38:10.033Z,99560.19
2023-04-03T14:43:34.942Z,99553.78
2023-04-03T14:49:05.936Z,99549.44
2023-04-03T14:54:36.920Z,99546.75
2023-04-03T15:00:02.144Z,99544.28
2023-04-03T15:05:29.950Z,99547.13
2023-04-03T15:10:53.992Z,99538.41
2023-04-03T15:16:26.959Z,99547.84
2023-04-03T15:21:55.967Z,99544.69
2023-04-03T15:27:27.968Z,99543.59
2023-04-03T15:32:53.016Z,99542.56
2023-04-03T15:38:20.981Z,99543.06
2023-04-03T15:43:45.973Z,99546.03
2023-04-03T15:49:09.994Z,99544.66
2023-04-03T15:54:37.951Z,99550.31
2023-04-03T16:00:02.133Z,99546.09
2023-04-03T16:05:27.944Z,99549.69
2023-04-03T16:10:56.003Z,99548.09
2023-04-03T16:16:21.070Z,99537.69
2023-04-03T16:21:45.982Z,99546.56
2023-04-03T16:27:21.162Z,99551.13
2023-04-03T16:32:48.060Z,99547.78
2023-04-03T16:38:12.960Z,99551.56
2023-04-03T16:49:05.181Z,99559.03
2023-04-03T16:54:54.254Z,99551.28
2023-04-03T17:00:35.282Z,99556.06
2023-04-03T17:05:59.963Z,99553.34
2023-04-03T17:11:24.998Z,99562.09
2023-04-03T17:16:53.005Z,99553.81
2023-04-03T17:22:17.999Z,99544.28
2023-04-03T17:27:43.001Z,99556.88
2023-04-03T17:33:10.032Z,99572.13
2023-04-03T17:38:36.161Z,99560.59
2023-04-03T17:44:03.018Z,99562.63
2023-04-03T17:49:32.005Z,99567.00
2023-04-03T17:54:56.171Z,99569.22
2023-04-03T18:00:22.995Z,99572.16
2023-04-03T18:05:51.017Z,99569.94
2023-04-03T18:11:17.021Z,99579.53
2023-04-03T18:16:45.986Z,99579.53
2023-04-03T18:22:21.006Z,99579.91
2023-04-03T18:27:52.024Z,99577.97
2023-04-03T18:33:17.044Z,99588.78
2023-04-03T18:38:44.047Z,99586.50
2023-04-03T18:44:13.056Z,99581.41
2023-04-03T18:49:37.021Z,99580.44
2023-04-03T18:55:05.047Z,99584.06
2023-04-03T19:00:30.298Z,99581.47
2023-04-03T19:05:56.033Z,99576.38
2023-04-03T19:11:23.050Z,99586.09
2023-04-03T19:16:48.364Z,99587.81
2023-04-03T19:22:14.057Z,99584.22
2023-04-03T19:27:49.231Z,99582.50
2023-04-03T19:33:14.053Z,99582.41
2023-04-03T19:38:39.050Z,99590.22
2023-04-03T19:44:07.101Z,99591.25
2023-04-03T19:49:31.072Z,99588.59
2023-04-03T19:54:56.059Z,99587.03
2023-04-03T20:00:24.052Z,99591.47
2023-04-03T20:05:49.096Z,99587.94
2023-04-03T20:11:13.079Z,99588.88
2023-04-03T20:16:41.067Z,99588.97
2023-04-03T20:22:06.078Z,99587.94
2023-04-03T20:27:39.044Z,99574.06
2023-04-03T20:33:07.106Z,99574.81
2023-04-03T20:38:32.081Z,99575.91
2023-04-03T20:43:57.062Z,99575.47
2023-04-03T20:49:25.117Z,99579.38
2023-04-03T20:54:50.077Z,99579.50
2023-04-03T21:00:16.048Z,99573.25
2023-04-03T21:05:45.051Z,99570.59
2023-04-03T21:11:40.103Z,99568.09
2023-04-03T21:17:05.086Z,99554.81
2023-04-03T21:22:33.244Z,99561.84
2023-04-03T21:28:06.106Z,99565.59
2023-04-03T21:33:31.091Z,99559.72
2023-04-03T21:38:59.097Z,99565.13
2023-04-03T21:44:25.096Z,99560.72
2023-04-03T21:49:51.100Z,99557.84
2023-04-03T21:55:22.110Z,99562.63
2023-04-03T22:00:49.148Z,99549.25
2023-04-03T22:06:15.114Z,99546.09
2023-04-03T22:11:45.105Z,99539.38
2023-04-03T22:17:11.101Z,99544.81
2023-04-03T22:22:35.297Z,99538.59
2023-04-03T22:28:09.138Z,99520.94
2023-04-03T22:33:34.101Z,99518.16
2023-04-03T22:38:58.135Z,99522.53
2023-04-03T22:44:29.673Z,99525.00
2023-04-03T22:49:56.270Z,99517.84
2023-04-03T22:55:23.598Z,99516.81
2023-04-03T23:00:50.106Z,99514.03
2023-04-03T23:06:16.104Z,99520.03
2023-04-03T23:11:40.149Z,99520.97
2023-04-03T23:17:12.334Z,99513.25
2023-04-03T23:22:37.366Z,99511.47
2023-04-03T23:28:11.149Z,99515.03
2023-04-03T23:33:39.175Z,99505.28
2023-04-03T23:39:07.157Z,99511.47
2023-04-03T23:44:32.179Z,99514.16
2023-04-03T23:49:59.134Z,99509.75
2023-04-03T23:55:18.401Z,99508.00
